sensor_id;sensor_type;location;lat;lon;timestamp;pressure;altitude;pressure_sealevel;temperature;humidity
12781;BME280;6454;43.304;24.344;2023-04-06T00:00:10;100016.00;;;4.45;69.47
12781;BME280;6454;43.304;24.344;2023-04-06T00:02:37;100017.13;;;4.49;69.67
12781;BME280;6454;43.304;24.344;2023-04-06T00:05:05;100126.78;;;5.17;70.13
12781;BME280;6454;43.304;24.344;2023-04-06T00:07:33;100020.47;;;4.56;70.12
12781;BME280;6454;43.304;24.344;2023-04-06T00:10:03;100126.34;;;5.25;69.68
12781;BME280;6454;43.304;24.344;2023-04-06T00:12:30;100049.63;;;4.69;70.39
12781;BME280;6454;43.304;24.344;2023-04-06T00:14:57;100015.66;;;4.58;69.38
12781;BME280;6454;43.304;24.344;2023-04-06T00:17:24;100124.28;;;5.32;69.28
12781;BME280;6454;43.304;24.344;2023-04-06T00:19:51;100123.72;;;5.30;69.56
12781;BME280;6454;43.304;24.344;2023-04-06T00:22:18;100090.56;;;5.25;68.69
12781;BME280;6454;43.304;24.344;2023-04-06T00:24:45;100042.50;;;4.80;68.29
12781;BME280;6454;43.304;24.344;2023-04-06T00:27:13;100022.81;;;4.74;68.66
12781;BME280;6454;43.304;24.344;2023-04-06T00:29:40;100080.53;;;5.15;68.60
12781;BME280;6454;43.304;24.344;2023-04-06T00:32:07;99961.84;;;4.31;68.61
12781;BME280;6454;43.304;24.344;2023-04-06T00:34:34;100111.94;;;5.36;69.17
12781;BME280;6454;43.304;24.344;2023-04-06T00:37:01;100071.03;;;5.07;69.30
12781;BME280;6454;43.304;24.344;2023-04-06T00:39:28;100103.69;;;5.43;69.99
12781;BME280;6454;43.304;24.344;2023-04-06T00:41:55;100096.13;;;5.40;70.06
12781;BME280;6454;43.304;24.344;2023-04-06T00:44:24;100109.50;;;5.35;70.98
12781;BME280;6454;43.304;24.344;2023-04-06T00:46:51;99972.34;;;4.54;71.42
12781;BME280;6454;43.304;24.344;2023-04-06T00:49:18;100102.31;;;5.40;72.10
12781;BME280;6454;43.304;24.344;2023-04-06T00:51:45;100000.75;;;4.72;73.08
12781;BME280;6454;43.304;24.344;2023-04-06T00:54:12;100084.94;;;5.26;73.59
12781;BME280;6454;43.304;24.344;2023-04-06T00:56:39;100103.97;;;5.46;73.44
12781;BME280;6454;43.304;24.344;2023-04-06T00:59:09;100022.59;;;5.02;73.63
12781;BME280;6454;43.304;24.344;2023-04-06T01:01:37;100107.13;;;5.38;74.11
12781;BME280;6454;43.304;24.344;2023-04-06T01:04:04;100067.63;;;5.17;73.59
12781;BME280;6454;43.304;24.344;2023-04-06T01:06:32;100100.34;;;5.31;73.96
12781;BME280;6454;43.304;24.344;2023-04-06T01:08:59;99954.38;;;4.33;73.64
12781;BME280;6454;43.304;24.344;2023-04-06T01:11:26;100036.56;;;4.78;73.87
12781;BME280;6454;43.304;24.344;2023-04-06T01:13:53;100080.31;;;5.21;73.96
12781;BME280;6454;43.304;24.344;2023-04-06T01:16:20;99903.06;;;4.08;73.40
12781;BME280;6454;43.304;24.344;2023-04-06T01:18:48;100088.34;;;5.16;74.16
12781;BME280;6454;43.304;24.344;2023-04-06T01:21:15;99983.84;;;4.50;73.90
12781;BME280;6454;43.304;24.344;2023-04-06T01:23:45;100076.47;;;5.12;74.21
12781;BME280;6454;43.304;24.344;2023-04-06T01:26:12;100055.91;;;5.01;74.18
12781;BME280;6454;43.304;24.344;2023-04-06T01:28:39;100067.97;;;5.20;73.36
12781;BME280;6454;43.304;24.344;2023-04-06T01:31:07;100079.22;;;5.17;73.49
12781;BME280;6454;43.304;24.344;2023-04-06T01:33:34;100066.81;;;5.16;72.89
12781;BME280;6454;43.304;24.344;2023-04-06T01:36:02;100041.41;;;5.02;72.19
12781;BME280;6454;43.304;24.344;2023-04-06T01:38:29;100016.66;;;4.79;72.02
12781;BME280;6454;43.304;24.344;2023-04-06T01:40:57;100000.75;;;4.72;71.98
12781;BME280;6454;43.304;24.344;2023-04-06T01:43:24;100053.91;;;5.13;71.54
12781;BME280;6454;43.304;24.344;2023-04-06T01:45:51;100059.31;;;5.18;71.23
12781;BME280;6454;43.304;24.344;2023-04-06T01:48:18;100027.41;;;5.00;71.40
12781;BME280;6454;43.304;24.344;2023-04-06T01:50:45;100063.03;;;5.12;71.20
12781;BME280;6454;43.304;24.344;2023-04-06T01:53:12;99977.59;;;4.66;71.06
12781;BME280;6454;43.304;24.344;2023-04-06T01:55:39;100052.38;;;5.22;71.12
12781;BME280;6454;43.304;24.344;2023-04-06T01:58:08;99931.25;;;4.32;70.53
12781;BME280;6454;43.304;24.344;2023-04-06T02:00:35;99976.28;;;4.47;71.12
12781;BME280;6454;43.304;24.344;2023-04-06T02:03:02;99905.81;;;4.13;71.21
12781;BME280;6454;43.304;24.344;2023-04-06T02:05:30;100052.59;;;5.16;71.04
12781;BME280;6454;43.304;24.344;2023-04-06T02:07:58;99920.91;;;4.41;71.05
12781;BME280;6454;43.304;24.344;2023-04-06T02:10:25;100020.72;;;5.03;71.22
12781;BME280;6454;43.304;24.344;2023-04-06T02:12:52;100047.88;;;5.28;71.43
12781;BME280;6454;43.304;24.344;2023-04-06T02:15:20;99902.09;;;4.19;71.49
12781;BME280;6454;43.304;24.344;2023-04-06T02:17:47;100000.97;;;4.92;71.46
12781;BME280;6454;43.304;24.344;2023-04-06T02:20:14;100042.44;;;5.23;71.84
12781;BME280;6454;43.304;24.344;2023-04-06T02:22:41;100042.72;;;5.27;71.46
12781;BME280;6454;43.304;24.344;2023-04-06T02:25:08;99966.16;;;4.76;71.82
12781;BME280;6454;43.304;24.344;2023-04-06T02:27:36;100053.44;;;5.21;71.92
12781;BME280;6454;43.304;24.344;2023-04-06T02:30:03;100040.47;;;5.13;72.41
12781;BME280;6454;43.304;24.344;2023-04-06T02:32:31;100041.84;;;5.21;72.49
12781;BME280;6454;43.304;24.344;2023-04-06T02:34:58;99964.72;;;4.68;72.72
12781;BME280;6454;43.304;24.344;2023-04-06T02:37:25;100007.47;;;4.96;72.74
12781;BME280;6454;43.304;24.344;2023-04-06T02:39:52;100040.66;;;5.07;73.00
12781;BME280;6454;43.304;24.344;2023-04-06T02:42:19;100039.03;;;5.06;73.14
12781;BME280;6454;43.304;24.344;2023-04-06T02:44:46;100041.97;;;5.04;72.87
12781;BME280;6454;43.304;24.344;2023-04-06T02:47:13;99839.66;;;3.59;73.01
12781;BME280;6454;43.304;24.344;2023-04-06T02:49:41;100045.19;;;5.06;73.19
12781;BME280;6454;43.304;24.344;2023-04-06T02:52:08;99901.91;;;4.04;73.06
12781;BME280;6454;43.304;24.344;2023-04-06T02:54:35;99950.63;;;4.56;72.24
12781;BME280;6454;43.304;24.344;2023-04-06T02:57:02;99853.19;;;3.90;72.22
12781;BME280;6454;43.304;24.344;2023-04-06T02:59:29;100040.09;;;5.05;72.56
12781;BME280;6454;43.304;24.344;2023-04-06T03:01:56;100027.53;;;4.89;72.69
12781;BME280;6454;43.304;24.344;2023-04-06T03:04:23;100028.97;;;4.96;71.25
12781;BME280;6454;43.304;24.344;2023-04-06T03:06:54;99996.03;;;4.84;72.37
12781;BME280;6454;43.304;24.344;2023-04-06T03:09:21;100023.25;;;4.88;72.73
12781;BME280;6454;43.304;24.344;2023-04-06T03:11:48;100045.53;;;5.10;72.84
12781;BME280;6454;43.304;24.344;2023-04-06T03:14:15;100047.94;;;5.11;73.03
12781;BME280;6454;43.304;24.344;2023-04-06T03:16:43;100015.19;;;4.88;73.47
12781;BME280;6454;43.304;24.344;2023-04-06T03:19:10;99772.66;;;3.42;73.29
12781;BME280;6454;43.304;24.344;2023-04-06T03:21:37;100051.72;;;5.10;73.18
12781;BME280;6454;43.304;24.344;2023-04-06T03:24:06;100049.31;;;5.14;72.56
12781;BME280;6454;43.304;24.344;2023-04-06T03:26:33;100056.00;;;5.11;72.60
12781;BME280;6454;43.304;24.344;2023-04-06T03:29:00;100050.13;;;5.14;73.26
12781;BME280;6454;43.304;24.344;2023-04-06T03:31:27;99978.97;;;4.69;73.23
12781;BME280;6454;43.304;24.344;2023-04-06T03:33:54;99996.00;;;4.79;72.92
12781;BME280;6454;43.304;24.344;2023-04-06T03:36:21;100046.94;;;5.17;72.37
12781;BME280;6454;43.304;24.344;2023-04-06T03:38:48;100064.88;;;5.12;72.58
12781;BME280;6454;43.304;24.344;2023-04-06T03:41:16;100022.75;;;4.91;72.32
12781;BME280;6454;43.304;24.344;2023-04-06T03:43:43;99987.75;;;4.64;71.75
12781;BME280;6454;43.304;24.344;2023-04-06T03:46:10;100046.56;;;5.09;71.82
12781;BME280;6454;43.304;24.344;2023-04-06T03:48:38;100051.41;;;5.07;71.86
12781;BME280;6454;43.304;24.344;2023-04-06T03:51:05;100050.56;;;5.06;72.32
12781;BME280;6454;43.304;24.344;2023-04-06T03:53:32;99978.03;;;4.58;71.80
12781;BME280;6454;43.304;24.344;2023-04-06T03:55:58;100049.47;;;5.02;72.18
12781;BME280;6454;43.304;24.344;2023-04-06T03:58:27;100000.81;;;4.77;72.23
12781;BME280;6454;43.304;24.344;2023-04-06T04:00:54;100044.81;;;4.93;72.38
12781;BME280;6454;43.304;24.344;2023-04-06T04:03:20;99770.66;;;3.33;72.50
12781;BME280;6454;43.304;24.344;2023-04-06T04:05:48;99908.22;;;4.15;72.73
12781;BME280;6454;43.304;24.344;2023-04-06T04:08:16;100049.59;;;5.12;72.52
12781;BME280;6454;43.304;24.344;2023-04-06T04:10:43;100048.22;;;5.10;72.57
12781;BME280;6454;43.304;24.344;2023-04-06T04:13:10;100071.16;;;5.17;72.16
12781;BME280;6454;43.304;24.344;2023-04-06T04:15:38;100056.63;;;5.18;72.03
12781;BME280;6454;43.304;24.344;2023-04-06T04:18:05;100080.22;;;5.11;71.29
12781;BME280;6454;43.304;24.344;2023-04-06T04:20:32;100020.22;;;4.84;70.93
12781;BME280;6454;43.304;24.344;2023-04-06T04:22:59;99881.59;;;4.08;70.81
12781;BME280;6454;43.304;24.344;2023-04-06T04:25:26;100058.81;;;5.21;71.38
12781;BME280;6454;43.304;24.344;2023-04-06T04:27:53;100041.84;;;4.94;70.92
12781;BME280;6454;43.304;24.344;2023-04-06T04:30:20;99966.78;;;4.61;70.61
12781;BME280;6454;43.304;24.344;2023-04-06T04:32:48;100048.31;;;5.20;71.39
12781;BME280;6454;43.304;24.344;2023-04-06T04:35:15;99974.84;;;4.61;70.65
12781;BME280;6454;43.304;24.344;2023-04-06T04:37:42;100051.28;;;5.23;70.26
12781;BME280;6454;43.304;24.344;2023-04-06T04:40:10;100054.66;;;5.36;70.80
12781;BME280;6454;43.304;24.344;2023-04-06T04:42:37;99985.31;;;4.84;70.72
12781;BME280;6454;43.304;24.344;2023-04-06T04:45:04;100049.97;;;5.26;71.33
12781;BME280;6454;43.304;24.344;2023-04-06T04:47:32;100051.94;;;5.31;70.77
12781;BME280;6454;43.304;24.344;2023-04-06T04:50:01;100041.56;;;5.17;70.61
12781;BME280;6454;43.304;24.344;2023-04-06T04:52:28;99980.47;;;4.86;70.39
12781;BME280;6454;43.304;24.344;2023-04-06T04:54:54;100064.22;;;5.27;70.58
12781;BME280;6454;43.304;24.344;2023-04-06T04:57:21;100044.31;;;5.22;70.71
12781;BME280;6454;43.304;24.344;2023-04-06T04:59:48;100075.88;;;5.32;71.10
12781;BME280;6454;43.304;24.344;2023-04-06T05:02:16;100054.34;;;5.32;71.76
12781;BME280;6454;43.304;24.344;2023-04-06T05:04:43;100041.22;;;5.36;70.94
12781;BME280;6454;43.304;24.344;2023-04-06T05:07:11;99942.19;;;4.74;71.19
12781;BME280;6454;43.304;24.344;2023-04-06T05:09:38;100000.81;;;5.04;70.34
12781;BME280;6454;43.304;24.344;2023-04-06T05:12:05;100041.22;;;5.36;70.84
12781;BME280;6454;43.304;24.344;2023-04-06T05:14:32;99920.25;;;4.55;71.05
12781;BME280;6454;43.304;24.344;2023-04-06T05:16:59;100044.25;;;5.44;71.72
12781;BME280;6454;43.304;24.344;2023-04-06T05:19:26;100047.78;;;5.50;70.81
12781;BME280;6454;43.304;24.344;2023-04-06T05:21:53;99874.63;;;4.34;71.03
12781;BME280;6454;43.304;24.344;2023-04-06T05:24:22;100041.81;;;5.43;71.32
12781;BME280;6454;43.304;24.344;2023-04-06T05:26:49;100008.59;;;5.27;70.84
12781;BME280;6454;43.304;24.344;2023-04-06T05:29:16;100049.97;;;5.26;70.87
12781;BME280;6454;43.304;24.344;2023-04-06T05:31:43;99931.31;;;4.86;71.24
12781;BME280;6454;43.304;24.344;2023-04-06T05:34:10;99879.16;;;4.55;70.35
12781;BME280;6454;43.304;24.344;2023-04-06T05:36:37;99876.00;;;4.63;69.78
12781;BME280;6454;43.304;24.344;2023-04-06T05:39:05;100000.06;;;5.35;68.50
12781;BME280;6454;43.304;24.344;2023-04-06T05:41:33;99955.69;;;4.79;69.28
12781;BME280;6454;43.304;24.344;2023-04-06T05:44:01;100030.91;;;5.59;68.87
12781;BME280;6454;43.304;24.344;2023-04-06T05:46:27;100012.28;;;5.48;68.20
12781;BME280;6454;43.304;24.344;2023-04-06T05:48:54;99788.09;;;4.27;68.60
12781;BME280;6454;43.304;24.344;2023-04-06T05:51:21;100003.78;;;5.66;69.01
12781;BME280;6454;43.304;24.344;2023-04-06T05:53:48;100008.72;;;5.79;68.81
12781;BME280;6454;43.304;24.344;2023-04-06T05:56:15;99784.28;;;4.49;68.42
12781;BME280;6454;43.304;24.344;2023-04-06T05:58:43;99890.50;;;4.94;67.88
12781;BME280;6454;43.304;24.344;2023-04-06T06:01:10;100001.78;;;5.83;67.09
12781;BME280;6454;43.304;24.344;2023-04-06T06:03:37;99946.84;;;5.42;66.50
12781;BME280;6454;43.304;24.344;2023-04-06T06:06:04;99929.13;;;5.46;66.60
12781;BME280;6454;43.304;24.344;2023-04-06T06:08:32;99669.22;;;3.46;65.85
12781;BME280;6454;43.304;24.344;2023-04-06T06:10:59;99998.38;;;5.93;65.72
12781;BME280;6454;43.304;24.344;2023-04-06T06:13:26;99994.59;;;5.94;65.71
12781;BME280;6454;43.304;24.344;2023-04-06T06:15:54;99966.34;;;5.59;64.22
12781;BME280;6454;43.304;24.344;2023-04-06T06:18:21;99818.66;;;4.79;65.26
12781;BME280;6454;43.304;24.344;2023-04-06T06:20:48;99904.25;;;5.29;65.59
12781;BME280;6454;43.304;24.344;2023-04-06T07:11:53;100006.63;;;6.90;58.98
12781;BME280;6454;43.304;24.344;2023-04-06T07:14:21;99978.47;;;6.45;59.33
12781;BME280;6454;43.304;24.344;2023-04-06T07:16:51;100004.44;;;6.77;59.80
12781;BME280;6454;43.304;24.344;2023-04-06T07:19:18;100014.91;;;6.73;59.92
12781;BME280;6454;43.304;24.344;2023-04-06T07:21:45;100016.81;;;6.68;60.05
12781;BME280;6454;43.304;24.344;2023-04-06T07:24:14;100014.63;;;6.65;59.08
12781;BME280;6454;43.304;24.344;2023-04-06T07:26:42;100011.41;;;6.63;58.48
12781;BME280;6454;43.304;24.344;2023-04-06T07:29:10;100006.28;;;6.66;58.49
12781;BME280;6454;43.304;24.344;2023-04-06T07:31:38;99913.94;;;6.19;59.96
12781;BME280;6454;43.304;24.344;2023-04-06T07:34:04;99892.09;;;6.05;59.23
12781;BME280;6454;43.304;24.344;2023-04-06T07:36:31;99858.38;;;5.88;60.02
12781;BME280;6454;43.304;24.344;2023-04-06T07:38:58;99873.72;;;5.92;59.13
12781;BME280;6454;43.304;24.344;2023-04-06T07:41:25;99996.94;;;6.94;58.97
12781;BME280;6454;43.304;24.344;2023-04-06T07:43:52;100009.38;;;7.05;58.54
12781;BME280;6454;43.304;24.344;2023-04-06T07:46:20;100003.19;;;7.14;60.21
12781;BME280;6454;43.304;24.344;2023-04-06T07:48:47;99998.88;;;7.19;59.11
12781;BME280;6454;43.304;24.344;2023-04-06T07:51:15;99860.94;;;6.29;57.71
12781;BME280;6454;43.304;24.344;2023-04-06T07:53:43;100012.91;;;7.36;58.79
12781;BME280;6454;43.304;24.344;2023-04-06T07:56:10;100015.59;;;7.36;57.02
12781;BME280;6454;43.304;24.344;2023-04-06T07:58:37;100020.22;;;7.45;56.92
12781;BME280;6454;43.304;24.344;2023-04-06T08:01:04;99920.59;;;6.88;56.06
12781;BME280;6454;43.304;24.344;2023-04-06T08:03:35;100024.53;;;7.61;58.11
12781;BME280;6454;43.304;24.344;2023-04-06T08:06:02;99998.91;;;7.69;56.26
12781;BME280;6454;43.304;24.344;2023-04-06T08:08:29;100002.66;;;7.68;55.31
12781;BME280;6454;43.304;24.344;2023-04-06T08:10:56;100004.56;;;7.83;55.70
12781;BME280;6454;43.304;24.344;2023-04-06T08:13:23;99941.16;;;7.50;56.21
12781;BME280;6454;43.304;24.344;2023-04-06T08:15:50;99986.44;;;7.88;56.37
12781;BME280;6454;43.304;24.344;2023-04-06T08:18:18;99967.84;;;7.66;57.97
12781;BME280;6454;43.304;24.344;2023-04-06T08:20:47;100002.09;;;8.06;55.28
12781;BME280;6454;43.304;24.344;2023-04-06T08:23:14;99893.91;;;7.57;57.55
12781;BME280;6454;43.304;24.344;2023-04-06T08:25:42;100004.19;;;8.45;55.22
12781;BME280;6454;43.304;24.344;2023-04-06T08:28:08;100001.72;;;8.48;54.07
12781;BME280;6454;43.304;24.344;2023-04-06T08:30:35;99764.78;;;6.90;53.48
12781;BME280;6454;43.304;24.344;2023-04-06T08:33:02;99996.84;;;8.45;52.84
12781;BME280;6454;43.304;24.344;2023-04-06T08:35:29;99997.41;;;8.47;53.08
12781;BME280;6454;43.304;24.344;2023-04-06T08:37:58;99714.69;;;6.59;53.23
12781;BME280;6454;43.304;24.344;2023-04-06T08:40:25;99862.56;;;7.71;55.63
12781;BME280;6454;43.304;24.344;2023-04-06T08:42:55;99943.41;;;8.32;55.04
12781;BME280;6454;43.304;24.344;2023-04-06T08:45:22;99817.19;;;7.68;53.68
12781;BME280;6454;43.304;24.344;2023-04-06T08:47:50;99972.13;;;8.77;53.62
12781;BME280;6454;43.304;24.344;2023-04-06T08:50:17;99985.09;;;8.85;53.12
12781;BME280;6454;43.304;24.344;2023-04-06T08:52:47;99982.56;;;8.98;53.91
12781;BME280;6454;43.304;24.344;2023-04-06T08:55:15;99922.16;;;8.69;53.92
12781;BME280;6454;43.304;24.344;2023-04-06T08:57:43;99975.69;;;9.16;54.29
12781;BME280;6454;43.304;24.344;2023-04-06T09:00:12;99982.38;;;9.24;53.03
12781;BME280;6454;43.304;24.344;2023-04-06T09:02:40;99980.47;;;9.29;51.94
12781;BME280;6454;43.304;24.344;2023-04-06T09:05:09;99977.94;;;9.38;54.37
12781;BME280;6454;43.304;24.344;2023-04-06T09:07:36;99975.63;;;9.55;53.59
12781;BME280;6454;43.304;24.344;2023-04-06T09:22:37;99956.09;;;10.63;48.77
12781;BME280;6454;43.304;24.344;2023-04-06T09:25:05;99952.28;;;10.64;49.20
12781;BME280;6454;43.304;24.344;2023-04-06T09:27:33;99940.72;;;10.77;48.41
12781;BME280;6454;43.304;24.344;2023-04-06T09:30:05;99939.53;;;10.64;49.86
12781;BME280;6454;43.304;24.344;2023-04-06T09:32:32;99946.78;;;10.69;47.92
12781;BME280;6454;43.304;24.344;2023-04-06T09:35:10;99700.25;;;9.37;49.02
12781;BME280;6454;43.304;24.344;2023-04-06T09:37:39;99935.78;;;10.97;49.16
12781;BME280;6454;43.304;24.344;2023-04-06T09:40:07;99940.06;;;11.04;45.92
12781;BME280;6454;43.304;24.344;2023-04-06T09:42:34;99913.34;;;10.92;47.30
12781;BME280;6454;43.304;24.344;2023-04-06T09:45:01;99926.19;;;11.05;47.93
12781;BME280;6454;43.304;24.344;2023-04-06T09:47:28;99933.44;;;11.10;46.86
12781;BME280;6454;43.304;24.344;2023-04-06T09:49:59;99838.06;;;10.47;45.18
12781;BME280;6454;43.304;24.344;2023-04-06T09:52:27;99949.22;;;10.89;45.47
12781;BME280;6454;43.304;24.344;2023-04-06T09:55:02;99918.66;;;10.83;47.54
12781;BME280;6454;43.304;24.344;2023-04-06T09:57:32;99866.22;;;10.69;47.34
12781;BME280;6454;43.304;24.344;2023-04-06T10:00:03;99917.97;;;11.10;47.19
12781;BME280;6454;43.304;24.344;2023-04-06T10:02:48;99928.97;;;11.00;45.13
12781;BME280;6454;43.304;24.344;2023-04-06T10:05:20;99919.22;;;10.80;44.94
12781;BME280;6454;43.304;24.344;2023-04-06T10:07:51;99888.00;;;10.64;46.15
12781;BME280;6454;43.304;24.344;2023-04-06T10:10:22;99905.28;;;10.87;46.30
12781;BME280;6454;43.304;24.344;2023-04-06T10:12:49;99791.91;;;10.14;45.48
12781;BME280;6454;43.304;24.344;2023-04-06T10:15:16;99907.19;;;11.05;46.82
12781;BME280;6454;43.304;24.344;2023-04-06T10:17:43;99911.38;;;11.16;47.45
12781;BME280;6454;43.304;24.344;2023-04-06T10:20:14;99905.84;;;11.21;45.02
12781;BME280;6454;43.304;24.344;2023-04-06T10:22:45;99905.78;;;11.08;43.92
12781;BME280;6454;43.304;24.344;2023-04-06T10:25:27;99905.28;;;11.06;45.68
12781;BME280;6454;43.304;24.344;2023-04-06T10:28:01;99920.09;;;11.13;45.66
12781;BME280;6454;43.304;24.344;2023-04-06T10:30:32;99848.56;;;10.72;45.53
12781;BME280;6454;43.304;24.344;2023-04-06T10:32:59;99776.38;;;10.39;45.21
12781;BME280;6454;43.304;24.344;2023-04-06T10:35:36;99895.59;;;11.32;46.90
12781;BME280;6454;43.304;24.344;2023-04-06T10:38:04;99900.09;;;11.55;46.51
12781;BME280;6454;43.304;24.344;2023-04-06T10:40:36;99900.22;;;11.63;45.76
12781;BME280;6454;43.304;24.344;2023-04-06T10:43:10;99893.09;;;11.68;45.99
12781;BME280;6454;43.304;24.344;2023-04-06T10:45:39;99779.16;;;10.84;44.72
12781;BME280;6454;43.304;24.344;2023-04-06T10:48:14;99767.25;;;10.67;45.89
12781;BME280;6454;43.304;24.344;2023-04-06T10:50:41;99891.28;;;11.31;45.47
12781;BME280;6454;43.304;24.344;2023-04-06T10:53:09;99886.84;;;11.21;43.91
12781;BME280;6454;43.304;24.344;2023-04-06T10:55:39;99882.22;;;11.22;46.43
12781;BME280;6454;43.304;24.344;2023-04-06T10:58:06;99826.00;;;10.90;45.41
12781;BME280;6454;43.304;24.344;2023-04-06T11:00:34;99876.06;;;11.48;45.71
12781;BME280;6454;43.304;24.344;2023-04-06T11:03:01;99880.09;;;11.51;45.36
12781;BME280;6454;43.304;24.344;2023-04-06T11:05:28;99788.59;;;10.87;45.48
12781;BME280;6454;43.304;24.344;2023-04-06T11:07:56;99876.78;;;11.54;43.30
12781;BME280;6454;43.304;24.344;2023-04-06T11:10:22;99871.88;;;11.70;45.83
12781;BME280;6454;43.304;24.344;2023-04-06T11:12:54;99883.16;;;11.77;47.12
12781;BME280;6454;43.304;24.344;2023-04-06T11:15:21;99867.06;;;12.07;46.22
12781;BME280;6454;43.304;24.344;2023-04-06T11:17:49;99868.44;;;12.32;46.67
12781;BME280;6454;43.304;24.344;2023-04-06T11:20:16;99733.38;;;11.64;45.76
12781;BME280;6454;43.304;24.344;2023-04-06T11:22:49;99859.97;;;12.47;45.20
12781;BME280;6454;43.304;24.344;2023-04-06T11:25:16;99858.78;;;12.75;43.10
12781;BME280;6454;43.304;24.344;2023-04-06T11:27:44;99861.38;;;12.80;44.12
12781;BME280;6454;43.304;24.344;2023-04-06T11:30:14;99853.19;;;12.58;44.34
12781;BME280;6454;43.304;24.344;2023-04-06T11:32:42;99867.28;;;12.60;43.00
12781;BME280;6454;43.304;24.344;2023-04-06T11:35:19;99581.97;;;10.53;43.28
12781;BME280;6454;43.304;24.344;2023-04-06T11:37:48;99724.03;;;11.57;43.37
12781;BME280;6454;43.304;24.344;2023-04-06T11:40:15;99657.47;;;11.46;44.97
12781;BME280;6454;43.304;24.344;2023-04-06T11:42:52;99858.53;;;12.63;44.02
12781;BME280;6454;43.304;24.344;2023-04-06T11:45:41;99850.94;;;12.38;43.55
12781;BME280;6454;43.304;24.344;2023-04-06T11:48:24;99865.13;;;12.35;42.95
12781;BME280;6454;43.304;24.344;2023-04-06T11:50:55;99840.91;;;12.11;44.30
12781;BME280;6454;43.304;24.344;2023-04-06T11:53:23;99855.47;;;12.02;42.55
12781;BME280;6454;43.304;24.344;2023-04-06T11:55:52;99848.25;;;12.11;43.58
12781;BME280;6454;43.304;24.344;2023-04-06T11:58:29;99857.19;;;12.25;44.30
12781;BME280;6454;43.304;24.344;2023-04-06T12:01:04;99860.91;;;12.29;45.08
12781;BME280;6454;43.304;24.344;2023-04-06T12:03:31;99857.56;;;12.32;43.76
12781;BME280;6454;43.304;24.344;2023-04-06T12:05:58;99836.72;;;12.27;43.67
12781;BME280;6454;43.304;24.344;2023-04-06T12:08:25;99848.09;;;12.29;42.49
12781;BME280;6454;43.304;24.344;2023-04-06T12:10:52;99850.38;;;12.50;42.08
12781;BME280;6454;43.304;24.344;2023-04-06T12:13:19;99850.50;;;12.45;43.75
12781;BME280;6454;43.304;24.344;2023-04-06T12:15:46;99755.53;;;11.85;43.25
12781;BME280;6454;43.304;24.344;2023-04-06T12:18:14;99839.22;;;12.51;42.35
12781;BME280;6454;43.304;24.344;2023-04-06T12:20:41;99841.25;;;12.46;41.74
12781;BME280;6454;43.304;24.344;2023-04-06T12:23:09;99835.84;;;12.68;43.48
12781;BME280;6454;43.304;24.344;2023-04-06T12:25:35;99848.03;;;12.70;42.42
12781;BME280;6454;43.304;24.344;2023-04-06T12:28:03;99793.81;;;12.24;42.95
12781;BME280;6454;43.304;24.344;2023-04-06T12:30:30;99764.34;;;12.18;40.89
12781;BME280;6454;43.304;24.344;2023-04-06T12:32:57;99834.44;;;12.21;41.23
12781;BME280;6454;43.304;24.344;2023-04-06T12:35:26;99789.63;;;12.05;42.16
12781;BME280;6454;43.304;24.344;2023-04-06T12:37:53;99857.94;;;12.53;42.35
12781;BME280;6454;43.304;24.344;2023-04-06T12:40:20;99842.66;;;12.29;41.82
12781;BME280;6454;43.304;24.344;2023-04-06T12:42:47;99796.03;;;11.73;42.14
12781;BME280;6454;43.304;24.344;2023-04-06T12:45:14;99846.22;;;11.89;42.02
12781;BME280;6454;43.304;24.344;2023-04-06T12:47:40;99857.09;;;11.76;42.92
12781;BME280;6454;43.304;24.344;2023-04-06T12:50:08;99756.50;;;11.08;43.00
12781;BME280;6454;43.304;24.344;2023-04-06T12:52:37;99842.28;;;11.82;42.19
12781;BME280;6454;43.304;24.344;2023-04-06T12:55:04;99840.59;;;11.72;41.32
12781;BME280;6454;43.304;24.344;2023-04-06T12:57:32;99843.53;;;11.76;41.70
12781;BME280;6454;43.304;24.344;2023-04-06T12:59:59;99818.13;;;11.53;41.67
12781;BME280;6454;43.304;24.344;2023-04-06T13:02:26;99834.53;;;11.61;42.00
12781;BME280;6454;43.304;24.344;2023-04-06T13:04:53;99840.66;;;11.53;42.70
12781;BME280;6454;43.304;24.344;2023-04-06T13:07:19;99837.34;;;11.56;43.16
12781;BME280;6454;43.304;24.344;2023-04-06T13:09:48;99763.53;;;11.09;42.53
12781;BME280;6454;43.304;24.344;2023-04-06T13:12:15;99803.28;;;11.18;41.42
12781;BME280;6454;43.304;24.344;2023-04-06T13:14:42;99778.31;;;11.02;41.21
12781;BME280;6454;43.304;24.344;2023-04-06T13:17:09;99828.25;;;11.34;41.77
12781;BME280;6454;43.304;24.344;2023-04-06T13:19:36;99809.13;;;11.25;43.79
12781;BME280;6454;43.304;24.344;2023-04-06T13:22:03;99820.28;;;11.37;43.63
12781;BME280;6454;43.304;24.344;2023-04-06T13:24:30;99821.09;;;11.38;43.15
12781;BME280;6454;43.304;24.344;2023-04-06T13:26:58;99811.50;;;11.13;41.57
12781;BME280;6454;43.304;24.344;2023-04-06T13:29:25;99829.75;;;11.26;42.46
12781;BME280;6454;43.304;24.344;2023-04-06T13:31:52;99816.84;;;11.18;42.60
12781;BME280;6454;43.304;24.344;2023-04-06T13:34:19;99823.53;;;11.07;42.72
12781;BME280;6454;43.304;24.344;2023-04-06T13:36:46;99674.28;;;10.10;43.26
12781;BME280;6454;43.304;24.344;2023-04-06T13:39:13;99786.09;;;10.77;42.30
12781;BME280;6454;43.304;24.344;2023-04-06T13:41:40;99720.94;;;10.45;42.65
12781;BME280;6454;43.304;24.344;2023-04-06T13:44:08;99813.38;;;10.99;43.35
12781;BME280;6454;43.304;24.344;2023-04-06T13:46:35;99814.78;;;10.96;43.15
12781;BME280;6454;43.304;24.344;2023-04-06T13:49:02;99812.06;;;10.96;43.34
12781;BME280;6454;43.304;24.344;2023-04-06T13:51:29;99821.38;;;10.90;43.13
12781;BME280;6454;43.304;24.344;2023-04-06T13:53:56;99815.03;;;10.81;43.26
12781;BME280;6454;43.304;24.344;2023-04-06T13:56:23;99823.25;;;10.76;42.59
12781;BME280;6454;43.304;24.344;2023-04-06T13:58:53;99816.50;;;10.74;43.04
12781;BME280;6454;43.304;24.344;2023-04-06T14:01:22;99826.97;;;10.80;43.33
12781;BME280;6454;43.304;24.344;2023-04-06T14:03:51;99683.84;;;9.89;43.43
12781;BME280;6454;43.304;24.344;2023-04-06T14:06:18;99830.66;;;10.71;42.50